Terminal Aerodrome Forecast
Issued by NWS

Home | Current Version | Previous Version | Text Only | Print | Product List | Glossary On
Versions: 1 2 3 4 5 6 7 8 9 10 11 12 13 14 15
645
FTUS43 KOAX 250520
TAFBFF
TAF
KBFF 250520Z 2506/2606 12008KT P6SM SKC
     FM251000 12008KT 5SM BR SCT005
     FM251500 12012KT P6SM SCT250
     FM252100 14015KT P6SM VCTS SCT070CB BKN250
     FM260300 12010KT P6SM SCT250=

USA.gov is the U.S. government's official web portal to all federal, state and local government web resources and services.